createdAt,value
2017-11-03T00:00:14.476Z,92.85
2017-11-03T00:02:41.969Z,92.76
2017-11-03T00:05:09.473Z,92.84
2017-11-03T00:07:36.966Z,92.98
2017-11-03T00:10:05.909Z,93.38
2017-11-03T00:12:50.482Z,93.79
2017-11-03T00:15:28.715Z,93.96
2017-11-03T00:18:03.002Z,93.80
2017-11-03T00:20:30.626Z,93.41
2017-11-03T00:22:58.142Z,93.13
2017-11-03T00:25:25.879Z,93.05
2017-11-03T00:28:00.854Z,93.21
2017-11-03T00:30:28.378Z,93.45
2017-11-03T00:32:55.874Z,93.52
2017-11-03T00:35:23.363Z,93.71
2017-11-03T00:37:50.891Z,93.34
2017-11-03T00:40:18.393Z,93.27
2017-11-03T00:42:45.885Z,93.08
2017-11-03T00:45:13.401Z,92.85
2017-11-03T00:47:44.552Z,92.92
2017-11-03T00:50:12.164Z,93.10
2017-11-03T00:52:39.802Z,93.55
2017-11-03T00:55:07.363Z,93.90
2017-11-03T00:57:34.878Z,94.13
2017-11-03T01:00:02.374Z,94.05
2017-11-03T01:02:29.892Z,94.23
2017-11-03T01:04:57.391Z,94.76
2017-11-03T01:07:24.886Z,94.77
2017-11-03T01:09:52.382Z,94.53
2017-11-03T01:12:19.906Z,94.15
2017-11-03T01:14:47.415Z,93.85
2017-11-03T01:17:14.918Z,94.23
2017-11-03T01:19:42.437Z,93.95
2017-11-03T01:22:09.936Z,93.86
2017-11-03T01:24:37.431Z,93.46
2017-11-03T01:27:05.009Z,93.53
2017-11-03T01:29:32.498Z,94.19
2017-11-03T01:32:00.018Z,94.04
2017-11-03T01:34:27.546Z,93.73
2017-11-03T01:36:55.043Z,93.19
2017-11-03T01:39:22.529Z,93.67
2017-11-03T01:41:50.019Z,93.68
2017-11-03T01:44:17.528Z,94.15
2017-11-03T01:46:45.025Z,94.05
2017-11-03T01:49:12.530Z,93.95
2017-11-03T01:51:40.032Z,93.92
2017-11-03T01:54:07.564Z,94.26
2017-11-03T01:56:35.070Z,94.72
2017-11-03T01:59:02.559Z,95.14
2017-11-03T02:01:30.067Z,95.29
2017-11-03T02:03:57.551Z,94.96
2017-11-03T02:06:25.042Z,95.41
2017-11-03T02:08:52.525Z,95.64
2017-11-03T02:11:20.006Z,95.59
2017-11-03T02:13:47.502Z,95.51
2017-11-03T02:16:14.997Z,95.40
2017-11-03T02:18:42.482Z,95.45
2017-11-03T02:21:10.153Z,95.37
2017-11-03T02:23:37.651Z,95.74
2017-11-03T02:26:05.175Z,95.78
2017-11-03T02:28:32.670Z,95.86
2017-11-03T02:31:00.179Z,95.78
2017-11-03T02:33:27.671Z,95.61
2017-11-03T02:35:55.173Z,95.16
2017-11-03T02:38:22.677Z,95.03
2017-11-03T02:40:50.239Z,95.83
2017-11-03T02:43:17.737Z,95.94
2017-11-03T02:45:45.286Z,96.09
2017-11-03T02:48:12.782Z,96.04
2017-11-03T02:50:40.284Z,96.20
2017-11-03T02:53:07.788Z,96.30
2017-11-03T02:55:35.282Z,96.24
2017-11-03T02:58:02.785Z,96.18
2017-11-03T03:00:30.283Z,96.11
2017-11-03T03:02:57.786Z,95.58
2017-11-03T03:05:25.286Z,95.37
2017-11-03T03:07:52.782Z,95.39
2017-11-03T03:10:20.278Z,95.82
2017-11-03T03:12:47.778Z,96.22
2017-11-03T03:15:15.289Z,95.95
2017-11-03T03:17:42.792Z,95.82
2017-11-03T03:20:10.301Z,95.47
2017-11-03T03:22:37.794Z,95.49
2017-11-03T03:25:05.301Z,95.80
2017-11-03T03:27:32.810Z,96.27
2017-11-03T03:30:00.315Z,96.05
2017-11-03T03:32:27.824Z,96.06
2017-11-03T03:34:56.685Z,96.05
2017-11-03T03:37:24.183Z,95.74
2017-11-03T03:39:51.707Z,95.36
2017-11-03T03:42:19.201Z,95.17
2017-11-03T03:44:46.698Z,94.91
2017-11-03T03:47:14.203Z,95.24
2017-11-03T03:49:41.783Z,95.51
2017-11-03T03:52:09.294Z,95.58
2017-11-03T03:54:36.802Z,95.75
2017-11-03T03:57:04.297Z,96.40
2017-11-03T03:59:31.794Z,96.38
2017-11-03T04:01:59.311Z,96.21
2017-11-03T04:04:26.892Z,96.01
2017-11-03T04:06:54.410Z,95.49
2017-11-03T04:09:21.901Z,94.64
2017-11-03T04:11:49.409Z,95.68
2017-11-03T04:14:16.899Z,96.73
2017-11-03T04:16:44.413Z,97.02
2017-11-03T04:19:11.913Z,96.99
2017-11-03T04:21:39.406Z,96.56
2017-11-03T04:24:06.914Z,96.27
2017-11-03T04:26:34.405Z,96.36
2017-11-03T04:29:01.915Z,96.42
2017-11-03T04:31:29.412Z,96.38
2017-11-03T04:33:56.909Z,96.23
2017-11-03T04:36:24.403Z,96.43
2017-11-03T04:38:51.896Z,96.48
2017-11-03T04:41:19.774Z,96.68
2017-11-03T04:43:47.282Z,96.85
2017-11-03T04:46:14.789Z,97.16
2017-11-03T04:48:42.307Z,97.14
2017-11-03T04:51:09.828Z,96.87
2017-11-03T04:53:37.320Z,96.86
2017-11-03T04:56:04.830Z,97.04
2017-11-03T04:58:32.326Z,96.94
2017-11-03T05:00:59.846Z,96.53
2017-11-03T05:03:27.346Z,96.20
2017-11-03T05:05:54.846Z,96.12
2017-11-03T05:08:22.358Z,96.44
2017-11-03T05:10:49.852Z,96.67
2017-11-03T05:13:17.361Z,96.79
2017-11-03T05:15:44.906Z,96.98
2017-11-03T05:18:12.415Z,96.82
2017-11-03T05:20:39.918Z,97.06
2017-11-03T05:23:07.429Z,96.62
2017-11-03T05:25:34.928Z,96.62
2017-11-03T05:28:02.471Z,96.49
2017-11-03T05:30:29.976Z,96.10
2017-11-03T05:32:57.513Z,96.16
2017-11-03T05:35:25.017Z,96.26
2017-11-03T05:37:52.497Z,96.97
2017-11-03T05:40:19.998Z,97.67
2017-11-03T05:42:47.506Z,97.89
2017-11-03T05:45:15.031Z,97.93
2017-11-03T05:47:42.535Z,97.93
2017-11-03T05:50:10.046Z,98.02
2017-11-03T05:52:37.541Z,98.32
2017-11-03T05:55:05.050Z,98.34
2017-11-03T05:57:32.555Z,97.93
2017-11-03T06:00:00.045Z,97.36
2017-11-03T06:02:27.555Z,97.45
2017-11-03T06:04:55.070Z,97.23
2017-11-03T06:07:22.620Z,97.21
2017-11-03T06:09:50.107Z,97.15
2017-11-03T06:12:17.614Z,97.18
2017-11-03T06:14:45.103Z,97.26
2017-11-03T06:17:12.623Z,97.02
2017-11-03T06:19:40.129Z,97.55
2017-11-03T06:22:07.646Z,97.59
2017-11-03T06:24:35.146Z,96.87
2017-11-03T06:27:02.626Z,96.90
2017-11-03T06:29:31.042Z,96.58
2017-11-03T06:31:58.553Z,96.57
2017-11-03T06:34:26.047Z,96.55
2017-11-03T06:36:53.538Z,96.64
2017-11-03T06:39:21.087Z,96.77
2017-11-03T06:41:48.590Z,96.15
2017-11-03T06:44:16.080Z,96.26
2017-11-03T06:46:43.593Z,96.07
2017-11-03T06:49:11.100Z,95.69
2017-11-03T06:51:38.611Z,95.78
2017-11-03T06:54:06.125Z,95.34
2017-11-03T06:56:33.660Z,95.00
2017-11-03T06:59:01.174Z,94.12
2017-11-03T07:01:28.689Z,94.88
2017-11-03T07:03:56.231Z,95.75
2017-11-03T07:06:23.729Z,96.63
2017-11-03T07:08:51.230Z,96.26
2017-11-03T07:11:18.723Z,96.09
2017-11-03T07:13:46.229Z,95.73
2017-11-03T07:16:13.754Z,94.89
2017-11-03T07:18:41.258Z,94.19
2017-11-03T07:21:08.785Z,93.66
2017-11-03T07:23:36.286Z,93.25
2017-11-03T07:26:03.794Z,93.12
2017-11-03T07:28:31.342Z,93.32
2017-11-03T07:30:58.850Z,94.18
2017-11-03T07:33:26.359Z,94.54
2017-11-03T07:35:53.864Z,93.99
2017-11-03T07:38:21.406Z,93.21
2017-11-03T07:40:48.926Z,92.38
2017-11-03T07:43:16.423Z,93.29
2017-11-03T07:45:43.951Z,93.50
2017-11-03T07:48:11.452Z,92.70
2017-11-03T07:50:38.951Z,92.40
2017-11-03T07:53:06.493Z,92.47
2017-11-03T07:55:33.993Z,92.47
2017-11-03T07:58:01.494Z,92.06
2017-11-03T08:00:28.995Z,92.21
2017-11-03T08:02:56.497Z,91.55
2017-11-03T08:05:24.034Z,90.61
2017-11-03T08:07:51.550Z,90.39
2017-11-03T08:10:19.078Z,89.67
2017-11-03T08:12:46.603Z,90.01
2017-11-03T08:15:14.107Z,89.00
2017-11-03T08:17:41.626Z,87.80
2017-11-03T08:20:09.143Z,88.19
2017-11-03T08:22:36.659Z,86.91
2017-11-03T08:25:04.186Z,86.83
2017-11-03T08:27:31.685Z,87.00
2017-11-03T08:29:59.210Z,86.94
2017-11-03T08:32:26.740Z,86.75
2017-11-03T08:34:54.267Z,86.29
2017-11-03T08:37:21.799Z,85.50
2017-11-03T08:39:49.321Z,85.58
2017-11-03T08:42:16.862Z,84.24
2017-11-03T08:44:44.406Z,83.72
2017-11-03T08:47:11.923Z,82.62
2017-11-03T08:49:39.470Z,82.03
2017-11-03T08:52:06.994Z,81.46
2017-11-03T08:54:34.779Z,82.38
2017-11-03T08:57:02.302Z,82.89
2017-11-03T08:59:29.871Z,82.22
2017-11-03T09:01:57.361Z,82.07
2017-11-03T09:04:26.371Z,81.84
2017-11-03T09:06:53.900Z,80.49
2017-11-03T09:09:21.512Z,79.88
2017-11-03T09:11:49.026Z,78.85
2017-11-03T09:14:16.529Z,79.37
2017-11-03T09:16:44.042Z,78.26
2017-11-03T09:19:11.552Z,78.23
2017-11-03T09:21:39.093Z,77.45
2017-11-03T09:24:06.612Z,76.00
2017-11-03T09:26:34.147Z,76.16
2017-11-03T09:29:01.661Z,75.88
2017-11-03T09:31:29.187Z,75.46
2017-11-03T09:33:56.696Z,73.45
2017-11-03T09:36:24.201Z,73.55
2017-11-03T09:38:51.703Z,72.99
2017-11-03T09:41:19.223Z,74.07
2017-11-03T09:43:46.735Z,73.73
2017-11-03T09:46:14.253Z,71.61
2017-11-03T09:48:41.771Z,72.16
2017-11-03T09:51:09.278Z,71.01
2017-11-03T09:53:36.804Z,68.50
2017-11-03T09:56:04.423Z,68.91
2017-11-03T09:58:31.934Z,69.38
2017-11-03T10:01:00.284Z,68.90
2017-11-03T10:03:27.812Z,68.75
2017-11-03T10:05:55.326Z,68.91
2017-11-03T10:08:22.832Z,67.67
2017-11-03T10:10:50.368Z,69.54
2017-11-03T10:13:17.879Z,70.13
2017-11-03T10:15:45.447Z,70.80
2017-11-03T10:18:12.958Z,68.79
2017-11-03T10:20:40.473Z,68.55
2017-11-03T10:23:07.986Z,69.39
2017-11-03T10:25:35.502Z,68.33
2017-11-03T10:28:03.002Z,67.58
2017-11-03T10:30:30.503Z,65.86
2017-11-03T10:32:58.033Z,64.44
2017-11-03T10:35:25.562Z,64.82
2017-11-03T10:37:53.073Z,67.30
2017-11-03T10:40:20.574Z,68.02
2017-11-03T10:42:48.085Z,66.70
2017-11-03T10:45:15.621Z,67.23
2017-11-03T10:47:43.155Z,64.79
2017-11-03T10:50:10.706Z,65.11
2017-11-03T10:52:38.433Z,64.55
2017-11-03T10:55:05.969Z,65.17
2017-11-03T10:57:33.509Z,61.17
2017-11-03T11:00:01.042Z,60.75
2017-11-03T11:02:28.656Z,61.95
2017-11-03T11:04:56.167Z,61.63
2017-11-03T11:07:23.698Z,62.55
2017-11-03T11:09:51.225Z,54.39
2017-11-03T11:12:18.743Z,52.77
2017-11-03T11:14:46.344Z,54.80
2017-11-03T11:17:13.868Z,57.79
2017-11-03T11:19:41.403Z,60.69
2017-11-03T11:22:08.902Z,59.68
2017-11-03T11:24:36.426Z,60.60
2017-11-03T11:27:03.937Z,62.21
2017-11-03T11:29:31.453Z,61.26
2017-11-03T11:31:58.990Z,60.25
2017-11-03T11:34:26.500Z,57.57
2017-11-03T11:36:54.049Z,55.92
2017-11-03T11:39:21.550Z,54.50
2017-11-03T11:41:49.084Z,58.57
2017-11-03T11:44:16.597Z,60.02
2017-11-03T11:46:44.160Z,60.52
2017-11-03T11:49:12.655Z,61.94
2017-11-03T11:51:40.181Z,62.54
2017-11-03T11:54:07.682Z,61.10
2017-11-03T11:56:35.182Z,60.56
2017-11-03T11:59:02.694Z,61.77
2017-11-03T12:01:30.209Z,60.60
2017-11-03T12:03:57.726Z,62.04
2017-11-03T12:06:25.247Z,60.96
2017-11-03T12:08:52.759Z,61.41
2017-11-03T12:11:20.298Z,61.69
2017-11-03T12:13:47.844Z,59.14
2017-11-03T12:16:15.362Z,58.66
2017-11-03T12:18:42.897Z,56.94
2017-11-03T12:21:10.398Z,55.68
2017-11-03T12:23:37.924Z,55.16
2017-11-03T12:26:05.473Z,53.86
2017-11-03T12:28:32.987Z,50.20
2017-11-03T12:31:00.524Z,44.81
2017-11-03T12:33:28.055Z,40.53
2017-11-03T12:35:55.773Z,38.44
2017-11-03T12:38:23.298Z,41.78
2017-11-03T12:40:55.678Z,46.45
2017-11-03T12:43:23.251Z,51.51
2017-11-03T12:45:50.759Z,54.80
2017-11-03T12:48:18.265Z,56.36
2017-11-03T12:50:45.825Z,58.31
2017-11-03T12:53:13.342Z,56.75
2017-11-03T12:55:40.850Z,57.58
2017-11-03T12:58:08.373Z,58.06
2017-11-03T13:00:35.923Z,60.46
2017-11-03T13:03:03.473Z,59.71
2017-11-03T13:05:31.022Z,60.74
2017-11-03T13:07:58.558Z,61.07
2017-11-03T13:10:26.090Z,62.83
2017-11-03T13:12:53.680Z,62.13
2017-11-03T13:15:21.195Z,62.60
2017-11-03T13:17:48.735Z,61.25
2017-11-03T13:20:16.260Z,61.85
2017-11-03T13:22:43.790Z,61.63
2017-11-03T13:25:11.326Z,60.31
2017-11-03T13:27:38.869Z,60.39
2017-11-03T13:30:06.372Z,60.55
2017-11-03T13:32:33.911Z,60.50
2017-11-03T13:35:01.454Z,61.10
2017-11-03T13:37:28.970Z,57.34
2017-11-03T13:39:57.574Z,52.27
2017-11-03T13:42:25.202Z,53.11
2017-11-03T13:44:52.858Z,55.32
2017-11-03T13:47:20.375Z,58.31
2017-11-03T13:49:47.887Z,55.34
2017-11-03T13:52:15.489Z,50.83
2017-11-03T13:54:43.016Z,53.60
2017-11-03T13:57:10.551Z,51.30
2017-11-03T13:59:38.051Z,50.85
2017-11-03T14:02:05.557Z,50.06
2017-11-03T14:04:33.069Z,50.94
2017-11-03T14:07:00.684Z,49.83
2017-11-03T14:09:28.215Z,48.87
2017-11-03T14:11:55.802Z,49.84
2017-11-03T14:14:23.322Z,51.30
2017-11-03T14:16:50.882Z,52.26
2017-11-03T14:19:18.414Z,53.09
2017-11-03T14:21:45.972Z,55.44
2017-11-03T14:24:13.518Z,56.68
2017-11-03T14:26:41.039Z,55.79
2017-11-03T14:29:08.552Z,56.27
2017-11-03T14:31:36.060Z,54.66
2017-11-03T14:34:03.564Z,54.67
2017-11-03T14:36:31.071Z,56.35
2017-11-03T14:38:58.589Z,57.32
2017-11-03T14:41:26.118Z,58.24
2017-11-03T14:43:53.624Z,58.81
2017-11-03T14:46:21.117Z,59.66
2017-11-03T14:48:48.621Z,58.64
2017-11-03T14:51:16.168Z,61.13
2017-11-03T14:53:43.675Z,60.96
2017-11-03T14:56:11.173Z,61.92
2017-11-03T14:58:38.702Z,64.84
2017-11-03T15:01:06.246Z,66.74
2017-11-03T15:03:33.751Z,68.62
2017-11-03T15:06:01.267Z,69.85
2017-11-03T15:08:28.774Z,70.50
2017-11-03T15:10:56.287Z,70.54
2017-11-03T15:13:23.820Z,71.80
2017-11-03T15:15:51.364Z,72.71
2017-11-03T15:18:18.875Z,71.57
2017-11-03T15:20:46.385Z,73.14
2017-11-03T15:23:13.918Z,73.67
2017-11-03T15:25:41.463Z,72.26
2017-11-03T15:28:08.971Z,73.94
2017-11-03T15:30:36.604Z,74.46
2017-11-03T15:33:04.108Z,74.56
2017-11-03T15:35:31.613Z,75.58
2017-11-03T15:37:59.113Z,76.67
2017-11-03T15:40:26.618Z,77.08
2017-11-03T15:42:54.226Z,78.04
2017-11-03T15:45:21.734Z,78.80
2017-11-03T15:47:49.228Z,79.33
2017-11-03T15:50:16.735Z,79.79
2017-11-03T15:52:44.242Z,80.35
2017-11-03T15:55:11.758Z,80.90
2017-11-03T15:57:39.286Z,81.54
2017-11-03T16:00:06.791Z,82.12
2017-11-03T16:02:34.315Z,82.45
2017-11-03T16:05:01.869Z,82.83
2017-11-03T16:07:29.477Z,83.54
2017-11-03T16:09:57.048Z,83.23
2017-11-03T16:12:24.570Z,84.02
2017-11-03T16:14:52.089Z,84.73
2017-11-03T16:17:19.633Z,85.42
2017-11-03T16:19:47.152Z,85.87
2017-11-03T16:22:14.717Z,86.31
2017-11-03T16:24:42.331Z,87.05
2017-11-03T16:27:09.845Z,87.31
2017-11-03T16:29:37.350Z,88.34
2017-11-03T16:32:04.858Z,88.46
2017-11-03T16:34:32.410Z,88.58
2017-11-03T16:37:00.033Z,88.74
2017-11-03T16:39:27.567Z,89.33
2017-11-03T16:41:55.066Z,89.26
2017-11-03T16:44:22.589Z,89.43
2017-11-03T16:46:50.110Z,90.14
2017-11-03T16:49:17.616Z,90.38
2017-11-03T16:51:45.138Z,90.10
2017-11-03T16:54:12.658Z,91.08
2017-11-03T16:56:40.155Z,91.01
2017-11-03T16:59:07.666Z,91.43
2017-11-03T17:01:35.193Z,91.36
2017-11-03T17:04:02.722Z,92.46
2017-11-03T17:06:30.234Z,92.92
2017-11-03T17:08:57.766Z,93.22
2017-11-03T17:11:25.313Z,93.94
2017-11-03T17:13:53.075Z,93.89
2017-11-03T17:16:20.705Z,94.55
2017-11-03T17:18:48.334Z,94.26
2017-11-03T17:21:15.863Z,94.72
2017-11-03T17:23:43.370Z,94.18
2017-11-03T17:26:10.885Z,94.00
2017-11-03T17:28:38.398Z,93.75
2017-11-03T17:31:05.973Z,94.28
2017-11-03T17:33:33.549Z,93.61
2017-11-03T17:36:01.050Z,93.30
2017-11-03T17:38:28.600Z,93.13
2017-11-03T17:40:56.125Z,93.88
2017-11-03T17:43:23.981Z,94.26
2017-11-03T17:45:51.502Z,94.63
2017-11-03T17:48:19.008Z,95.52
2017-11-03T17:50:46.557Z,95.23
2017-11-03T17:53:14.091Z,94.87
2017-11-03T17:55:41.607Z,94.74
2017-11-03T17:58:09.140Z,94.26
2017-11-03T18:00:36.662Z,94.50
2017-11-03T18:03:04.208Z,94.04
2017-11-03T18:05:31.727Z,95.43
2017-11-03T18:07:59.279Z,96.15
2017-11-03T18:10:26.832Z,96.18
2017-11-03T18:12:54.380Z,96.20
2017-11-03T18:15:22.081Z,95.58
2017-11-03T18:17:49.614Z,95.99
2017-11-03T18:20:17.114Z,96.07
2017-11-03T18:22:44.636Z,94.87
2017-11-03T18:25:12.137Z,94.81
2017-11-03T18:27:39.653Z,95.18
2017-11-03T18:30:07.171Z,95.10
2017-11-03T18:32:34.686Z,95.10
2017-11-03T18:35:02.191Z,95.02
2017-11-03T18:37:29.759Z,96.30
2017-11-03T18:39:57.275Z,95.54
2017-11-03T18:42:24.799Z,95.93
2017-11-03T18:44:52.326Z,96.05
2017-11-03T18:47:21.010Z,96.53
2017-11-03T18:49:48.615Z,96.95
2017-11-03T18:52:16.173Z,97.12
2017-11-03T18:54:43.701Z,96.66
2017-11-03T18:57:11.702Z,96.72
2017-11-03T18:59:39.438Z,97.19
2017-11-03T19:02:17.803Z,96.99
2017-11-03T19:04:45.343Z,96.64
2017-11-03T19:07:12.890Z,96.44
2017-11-03T19:09:40.417Z,96.80
2017-11-03T19:12:07.927Z,96.62
2017-11-03T19:14:35.433Z,97.00
2017-11-03T19:17:03.028Z,96.81
2017-11-03T19:19:30.549Z,95.72
2017-11-03T19:21:58.077Z,95.82
2017-11-03T19:24:25.598Z,96.29
2017-11-03T19:26:53.120Z,96.08
2017-11-03T19:29:20.627Z,95.86
2017-11-03T19:31:48.166Z,96.05
2017-11-03T19:34:15.719Z,95.39
2017-11-03T19:36:43.220Z,95.39
2017-11-03T19:39:10.726Z,95.91
2017-11-03T19:41:38.309Z,96.57
2017-11-03T19:44:05.845Z,96.77
2017-11-03T19:46:33.377Z,97.02
2017-11-03T19:49:00.884Z,97.05
2017-11-03T19:51:28.402Z,96.99
2017-11-03T19:53:55.921Z,97.29
2017-11-03T19:56:23.413Z,97.80
2017-11-03T19:58:50.935Z,97.37
2017-11-03T20:01:18.459Z,97.93
2017-11-03T20:03:45.993Z,97.62
2017-11-03T20:06:13.642Z,97.03
2017-11-03T20:08:41.159Z,97.47
2017-11-03T20:11:08.690Z,97.56
2017-11-03T20:13:36.206Z,97.33
2017-11-03T20:16:03.742Z,97.95
2017-11-03T20:18:31.254Z,97.47
2017-11-03T20:20:58.766Z,97.99
2017-11-03T20:23:26.279Z,97.35
2017-11-03T20:25:53.804Z,97.99
2017-11-03T20:28:21.343Z,97.59
2017-11-03T20:30:48.850Z,97.33
2017-11-03T20:33:16.359Z,97.50
2017-11-03T20:35:43.894Z,97.93
2017-11-03T20:38:11.411Z,98.01
2017-11-03T20:40:38.930Z,96.72
2017-11-03T20:43:06.516Z,97.15
2017-11-03T20:45:34.038Z,97.56
2017-11-03T20:48:01.565Z,97.06
2017-11-03T20:50:29.109Z,95.94
2017-11-03T20:52:56.616Z,96.10
2017-11-03T20:55:24.152Z,97.06
2017-11-03T20:57:51.647Z,97.08
2017-11-03T21:00:19.176Z,95.95
2017-11-03T21:02:46.697Z,96.22
2017-11-03T21:05:14.220Z,96.71
2017-11-03T21:07:41.713Z,96.85
2017-11-03T21:10:09.243Z,96.79
2017-11-03T21:12:36.763Z,97.33
2017-11-03T21:15:04.284Z,97.23
2017-11-03T21:17:31.828Z,97.44
2017-11-03T21:19:59.403Z,97.49
2017-11-03T21:22:26.936Z,97.71
2017-11-03T21:24:54.492Z,97.95
2017-11-03T21:27:22.028Z,98.34
2017-11-03T21:29:49.565Z,98.74
2017-11-03T21:32:17.077Z,98.67
2017-11-03T21:34:44.640Z,98.75
2017-11-03T21:37:12.165Z,98.50
2017-11-03T21:39:39.801Z,98.29
2017-11-03T21:42:07.465Z,98.24
2017-11-03T21:44:34.995Z,98.13
2017-11-03T21:47:02.526Z,98.15
2017-11-03T21:49:30.068Z,98.00
2017-11-03T21:51:57.599Z,97.83
2017-11-03T21:54:25.137Z,97.38
2017-11-03T21:56:52.691Z,97.14
2017-11-03T21:59:20.211Z,96.47
2017-11-03T22:01:47.746Z,97.04
2017-11-03T22:04:15.274Z,96.76
2017-11-03T22:06:42.798Z,97.53
2017-11-03T22:09:10.320Z,97.72
2017-11-03T22:11:37.896Z,97.38
2017-11-03T22:14:05.415Z,96.80
2017-11-03T22:16:32.963Z,97.11
2017-11-03T22:19:00.479Z,97.66
2017-11-03T22:21:28.048Z,97.78
2017-11-03T22:23:55.557Z,97.87
2017-11-03T22:26:23.054Z,97.53
2017-11-03T22:28:50.602Z,97.73
2017-11-03T22:31:18.119Z,97.70
2017-11-03T22:33:45.629Z,97.99
2017-11-03T22:36:13.152Z,97.70
2017-11-03T22:38:40.679Z,97.61
2017-11-03T22:41:08.206Z,97.47
2017-11-03T22:43:35.718Z,97.55
2017-11-03T22:46:03.242Z,97.64
2017-11-03T22:48:30.759Z,97.29
2017-11-03T22:50:58.303Z,97.09
2017-11-03T22:53:25.816Z,97.31
2017-11-03T22:55:53.324Z,97.46
2017-11-03T22:58:20.822Z,96.78
2017-11-03T23:00:48.424Z,97.05
2017-11-03T23:03:15.935Z,97.04
2017-11-03T23:05:43.476Z,96.44
2017-11-03T23:08:10.994Z,96.35
2017-11-03T23:10:38.515Z,96.46
2017-11-03T23:13:06.119Z,97.61
2017-11-03T23:15:33.673Z,97.23
2017-11-03T23:18:01.180Z,97.10
2017-11-03T23:20:28.694Z,97.80
2017-11-03T23:22:56.202Z,97.95
2017-11-03T23:25:23.717Z,97.59
2017-11-03T23:27:51.243Z,97.53
2017-11-03T23:30:18.759Z,97.52
2017-11-03T23:32:46.266Z,97.77
2017-11-03T23:35:13.765Z,97.92
2017-11-03T23:37:41.308Z,98.09
2017-11-03T23:40:08.843Z,98.24
2017-11-03T23:42:36.423Z,98.13
2017-11-03T23:45:03.950Z,98.27
2017-11-03T23:47:31.462Z,97.60
2017-11-03T23:49:58.996Z,97.15
2017-11-03T23:52:26.510Z,97.43
2017-11-03T23:54:54.011Z,97.28
2017-11-03T23:57:21.511Z,97.42
2017-11-03T23:59:49.041Z,97.62
